createdAt,value
2018-11-23T00:00:11.614Z,73.55
2018-11-23T00:02:40.154Z,82.42
2018-11-23T00:05:08.507Z,82.97
2018-11-23T00:07:36.851Z,79.58
2018-11-23T00:10:06.989Z,71.92
2018-11-23T00:12:35.536Z,71.75
2018-11-23T00:15:03.941Z,76.30
2018-11-23T00:17:32.266Z,69.45
2018-11-23T00:20:00.580Z,76.60
2018-11-23T00:22:28.918Z,76.05
2018-11-23T00:24:57.210Z,73.90
2018-11-23T00:27:25.525Z,74.97
2018-11-23T00:29:53.846Z,69.95
2018-11-23T00:32:22.148Z,70.25
2018-11-23T00:34:50.452Z,73.80
2018-11-23T00:37:18.754Z,71.75
2018-11-23T00:39:47.068Z,75.85
2018-11-23T00:42:15.417Z,73.75
2018-11-23T00:44:43.835Z,72.32
2018-11-23T00:47:13.142Z,74.00
2018-11-23T00:49:41.460Z,80.97
2018-11-23T00:52:09.746Z,78.35
2018-11-23T00:54:38.061Z,74.20
2018-11-23T00:57:06.396Z,77.08
2018-11-23T00:59:34.702Z,81.15
2018-11-23T01:02:05.296Z,80.60
2018-11-23T01:04:34.994Z,75.32
2018-11-23T01:07:03.901Z,73.80
2018-11-23T01:09:32.280Z,80.40
2018-11-23T01:12:00.619Z,82.55
2018-11-23T01:14:28.997Z,78.33
2018-11-23T01:16:57.320Z,73.90
2018-11-23T01:19:25.651Z,75.80
2018-11-23T01:21:53.978Z,78.80
2018-11-23T01:24:22.306Z,80.05
2018-11-23T01:26:50.614Z,82.02
2018-11-23T01:29:18.915Z,83.78
2018-11-23T01:31:47.241Z,80.00
2018-11-23T01:34:15.618Z,91.02
2018-11-23T01:36:43.954Z,76.25
2018-11-23T01:39:12.271Z,78.12
2018-11-23T01:41:40.781Z,82.70
2018-11-23T01:44:09.356Z,86.97
2018-11-23T01:46:37.711Z,85.95
2018-11-23T01:49:06.142Z,83.78
2018-11-23T01:51:34.464Z,79.85
2018-11-23T01:54:02.776Z,78.00
2018-11-23T01:56:31.132Z,71.02
2018-11-23T01:58:59.456Z,72.17
2018-11-23T02:01:27.771Z,72.17
2018-11-23T02:03:56.110Z,79.00
2018-11-23T02:06:24.438Z,79.70
2018-11-23T02:08:52.784Z,80.00
2018-11-23T02:11:21.136Z,78.92
2018-11-23T02:13:49.436Z,78.45
2018-11-23T02:16:17.741Z,78.87
2018-11-23T02:18:46.536Z,75.25
2018-11-23T02:21:14.874Z,74.77
2018-11-23T02:23:43.178Z,77.65
2018-11-23T02:26:11.472Z,80.67
2018-11-23T02:28:39.817Z,82.08
2018-11-23T02:31:09.156Z,73.20
2018-11-23T02:33:38.882Z,85.47
2018-11-23T02:36:08.160Z,84.65
2018-11-23T02:38:36.679Z,88.87
2018-11-23T02:41:05.287Z,84.42
2018-11-23T02:43:33.628Z,78.60
2018-11-23T02:46:01.937Z,79.80
2018-11-23T02:48:30.264Z,78.83
2018-11-23T02:50:58.580Z,78.15
2018-11-23T02:53:26.860Z,74.17
2018-11-23T02:55:55.156Z,72.82
2018-11-23T02:58:23.451Z,78.50
2018-11-23T03:00:51.765Z,77.37
2018-11-23T03:03:20.105Z,86.15
2018-11-23T03:05:48.427Z,79.45
2018-11-23T03:08:16.749Z,72.90
2018-11-23T03:10:45.087Z,77.22
2018-11-23T03:13:13.375Z,77.17
2018-11-23T03:15:41.683Z,75.00
2018-11-23T03:18:10.020Z,75.83
2018-11-23T03:20:38.301Z,78.15
2018-11-23T03:23:06.614Z,74.17
2018-11-23T03:25:34.909Z,73.72
2018-11-23T03:28:03.229Z,80.77
2018-11-23T03:30:31.538Z,83.75
2018-11-23T03:32:59.823Z,77.20
2018-11-23T03:35:28.133Z,76.97
2018-11-23T03:37:56.443Z,77.92
2018-11-23T03:40:24.764Z,86.35
2018-11-23T03:42:53.075Z,81.17
2018-11-23T03:45:21.379Z,79.45
2018-11-23T03:47:49.710Z,78.42
2018-11-23T03:50:18.434Z,75.00
2018-11-23T03:52:47.069Z,82.08
2018-11-23T03:55:15.369Z,80.50
2018-11-23T03:57:43.673Z,81.57
2018-11-23T04:00:17.440Z,74.87
2018-11-23T04:02:42.631Z,77.78
2018-11-23T04:05:10.947Z,77.82
2018-11-23T04:07:39.247Z,75.20
2018-11-23T04:10:08.849Z,83.97
2018-11-23T04:12:37.169Z,78.57
2018-11-23T04:15:06.178Z,84.17
2018-11-23T04:17:34.491Z,81.32
2018-11-23T04:20:02.846Z,82.02
2018-11-23T04:22:31.153Z,82.53
2018-11-23T04:24:59.466Z,84.45
2018-11-23T04:27:27.779Z,78.17
2018-11-23T04:29:56.127Z,85.05
2018-11-23T04:32:24.431Z,83.10
2018-11-23T04:34:52.741Z,80.62
2018-11-23T04:37:22.656Z,83.60
2018-11-23T04:39:51.258Z,80.92
2018-11-23T04:42:19.833Z,75.10
2018-11-23T04:44:48.133Z,80.90
2018-11-23T04:47:16.474Z,81.70
2018-11-23T04:49:44.778Z,72.95
2018-11-23T04:52:13.118Z,74.30
2018-11-23T04:54:41.452Z,83.17
2018-11-23T04:57:09.819Z,78.62
2018-11-23T04:59:38.129Z,80.77
2018-11-23T05:02:06.489Z,74.67
2018-11-23T05:04:34.787Z,77.53
2018-11-23T05:07:03.109Z,74.82
2018-11-23T05:09:31.419Z,81.10
2018-11-23T05:12:00.345Z,72.72
2018-11-23T05:14:28.674Z,76.15
2018-11-23T05:16:56.978Z,73.95
2018-11-23T05:19:25.285Z,78.07
2018-11-23T05:21:53.583Z,78.10
2018-11-23T05:24:21.880Z,74.17
2018-11-23T05:26:50.165Z,80.17
2018-11-23T05:29:18.483Z,61.18
2018-11-23T05:31:46.793Z,69.30
2018-11-23T05:34:15.099Z,74.42
2018-11-23T05:36:44.077Z,69.70
2018-11-23T05:39:13.497Z,72.47
2018-11-23T05:41:41.799Z,78.87
2018-11-23T05:44:10.131Z,73.45
2018-11-23T05:46:38.416Z,75.28
2018-11-23T05:49:06.720Z,80.30
2018-11-23T05:51:35.032Z,80.32
2018-11-23T05:54:03.425Z,72.12
2018-11-23T05:56:31.714Z,72.10
2018-11-23T05:59:00.039Z,73.52
2018-11-23T06:01:28.335Z,66.28
2018-11-23T06:03:56.637Z,67.50
2018-11-23T06:06:25.896Z,71.12
2018-11-23T06:08:53.368Z,71.90
2018-11-23T06:11:22.305Z,68.22
2018-11-23T06:13:50.663Z,68.55
2018-11-23T06:16:18.982Z,77.78
2018-11-23T06:18:47.511Z,88.03
2018-11-23T06:21:15.816Z,71.42
2018-11-23T06:23:44.125Z,67.92
2018-11-23T06:26:20.474Z,69.50
2018-11-23T06:28:48.813Z,69.03
2018-11-23T06:31:17.156Z,69.90
2018-11-23T06:33:46.501Z,77.22
2018-11-23T06:36:14.865Z,78.90
2018-11-23T06:38:43.179Z,77.78
2018-11-23T06:41:11.808Z,73.40
2018-11-23T06:43:40.105Z,76.75
2018-11-23T06:46:09.881Z,72.92
2018-11-23T06:48:38.183Z,82.57
2018-11-23T06:51:06.991Z,76.70
2018-11-23T06:53:35.316Z,72.03
2018-11-23T06:56:04.217Z,75.67
2018-11-23T06:58:33.140Z,69.62
2018-11-23T07:01:01.469Z,75.72
2018-11-23T07:03:29.799Z,69.67
2018-11-23T07:05:58.700Z,73.12
2018-11-23T07:08:27.029Z,69.85
2018-11-23T07:10:58.546Z,64.92
2018-11-23T07:13:27.381Z,74.80
2018-11-23T07:15:55.891Z,73.30
2018-11-23T07:18:24.205Z,75.92
2018-11-23T07:20:52.537Z,73.12
2018-11-23T07:23:20.829Z,69.42
2018-11-23T07:25:49.151Z,77.70
2018-11-23T07:28:17.485Z,72.62
2018-11-23T07:30:45.802Z,70.52
2018-11-23T07:33:14.149Z,70.62
2018-11-23T07:35:42.439Z,73.72
2018-11-23T07:38:10.781Z,73.17
2018-11-23T07:40:51.545Z,68.50
2018-11-23T07:43:21.345Z,69.15
2018-11-23T07:45:49.822Z,71.53
2018-11-23T07:48:18.121Z,75.75
2018-11-23T07:50:46.494Z,72.00
2018-11-23T07:53:15.068Z,65.28
2018-11-23T07:55:43.397Z,69.15
2018-11-23T07:58:11.840Z,72.92
2018-11-23T08:00:40.185Z,70.03
2018-11-23T08:03:09.283Z,69.97
2018-11-23T08:05:37.637Z,70.12
2018-11-23T08:08:06.276Z,67.58
2018-11-23T08:10:33.825Z,65.28
2018-11-23T08:13:02.151Z,65.72
2018-11-23T08:15:30.457Z,62.58
2018-11-23T08:17:58.801Z,57.73
2018-11-23T08:20:27.128Z,58.73
2018-11-23T08:22:55.975Z,60.92
2018-11-23T08:25:25.751Z,56.65
2018-11-23T08:27:55.237Z,60.75
2018-11-23T08:30:25.015Z,58.45
2018-11-23T08:32:53.544Z,60.67
2018-11-23T08:35:21.932Z,61.98
2018-11-23T08:37:50.275Z,62.30
2018-11-23T08:40:20.931Z,64.27
2018-11-23T08:42:50.616Z,62.60
2018-11-23T08:45:21.007Z,61.28
2018-11-23T08:47:49.332Z,59.83
2018-11-23T08:50:27.754Z,58.40
2018-11-23T08:52:56.072Z,61.50
2018-11-23T08:55:24.683Z,58.45
2018-11-23T08:57:53.217Z,61.50
2018-11-23T09:00:24.404Z,60.75
2018-11-23T09:02:54.325Z,57.23
2018-11-23T09:05:22.653Z,59.70
2018-11-23T09:07:52.309Z,60.05
2018-11-23T09:10:23.029Z,55.83
2018-11-23T09:12:54.807Z,59.98
2018-11-23T09:15:23.157Z,58.85
2018-11-23T09:17:51.444Z,57.98
2018-11-23T09:20:20.219Z,58.80
2018-11-23T09:22:48.517Z,53.02
2018-11-23T09:25:18.266Z,59.55
2018-11-23T09:27:47.580Z,61.58
2018-11-23T09:30:20.393Z,60.20
2018-11-23T09:32:49.693Z,57.05
2018-11-23T09:35:18.059Z,55.45
2018-11-23T09:37:46.836Z,58.98
2018-11-23T09:40:16.592Z,53.70
2018-11-23T09:42:44.919Z,60.85
2018-11-23T09:45:15.893Z,62.48
2018-11-23T09:47:45.182Z,60.35
2018-11-23T09:50:14.996Z,61.30
2018-11-23T09:52:44.323Z,58.13
2018-11-23T09:55:12.681Z,58.92
2018-11-23T09:57:41.171Z,51.37
2018-11-23T10:00:12.432Z,55.43
2018-11-23T10:02:41.224Z,53.02
2018-11-23T10:05:10.459Z,54.25
2018-11-23T10:07:38.803Z,54.45
2018-11-23T10:10:08.157Z,54.75
2018-11-23T10:12:36.511Z,53.95
2018-11-23T10:15:05.323Z,56.85
2018-11-23T10:17:33.626Z,53.02
2018-11-23T10:20:01.943Z,50.90
2018-11-23T10:22:30.233Z,49.33
2018-11-23T10:24:58.560Z,53.63
2018-11-23T10:27:26.881Z,47.20
2018-11-23T10:29:55.423Z,50.48
2018-11-23T10:32:23.509Z,49.58
2018-11-23T10:34:58.457Z,47.83
2018-11-23T10:37:33.131Z,52.98
2018-11-23T10:40:01.455Z,55.25
2018-11-23T10:42:29.775Z,51.50
2018-11-23T10:44:58.693Z,46.30
2018-11-23T10:47:26.997Z,49.70
2018-11-23T10:49:55.336Z,50.50
2018-11-23T10:52:23.703Z,43.05
2018-11-23T10:54:51.992Z,45.35
2018-11-23T10:57:20.287Z,47.40
2018-11-23T10:59:48.611Z,48.60
2018-11-23T11:02:22.391Z,44.75
2018-11-23T11:04:56.891Z,51.27
2018-11-23T11:07:25.207Z,45.60
2018-11-23T11:09:53.504Z,45.30
2018-11-23T11:12:21.824Z,46.53
2018-11-23T11:14:50.125Z,44.47
2018-11-23T11:17:18.427Z,43.53
2018-11-23T11:19:46.771Z,45.00
2018-11-23T11:22:15.057Z,47.53
2018-11-23T11:24:43.355Z,45.73
2018-11-23T11:27:11.703Z,42.93
2018-11-23T11:29:40.036Z,45.80
2018-11-23T11:32:08.360Z,44.90
2018-11-23T11:34:36.665Z,44.63
2018-11-23T11:37:05.230Z,49.00
2018-11-23T11:39:33.635Z,46.80
2018-11-23T11:42:01.962Z,45.73
2018-11-23T11:44:30.295Z,42.33
2018-11-23T11:46:58.618Z,41.07
2018-11-23T11:49:26.956Z,41.77
2018-11-23T11:51:55.287Z,40.07
2018-11-23T11:54:23.588Z,42.60
2018-11-23T11:56:51.936Z,40.90
2018-11-23T11:59:20.308Z,40.27
2018-11-23T12:01:48.691Z,42.03
2018-11-23T12:04:17.018Z,42.10
2018-11-23T12:06:45.350Z,40.07
2018-11-23T12:09:13.716Z,41.20
2018-11-23T12:11:42.081Z,43.97
2018-11-23T12:14:11.078Z,38.37
2018-11-23T12:16:39.436Z,38.30
2018-11-23T12:19:08.188Z,38.30
2018-11-23T12:21:36.469Z,38.13
2018-11-23T12:24:04.811Z,40.70
2018-11-23T12:26:33.130Z,39.80
2018-11-23T12:29:01.472Z,38.17
2018-11-23T12:31:29.794Z,39.10
2018-11-23T12:33:58.126Z,38.93
2018-11-23T12:36:26.480Z,39.73
2018-11-23T12:38:55.478Z,40.70
2018-11-23T12:41:23.829Z,40.77
2018-11-23T12:43:52.180Z,40.50
2018-11-23T12:46:20.522Z,40.40
2018-11-23T12:48:48.922Z,40.10
2018-11-23T12:51:17.258Z,43.33
2018-11-23T12:53:45.588Z,43.03
2018-11-23T12:56:13.924Z,41.50
2018-11-23T12:58:43.017Z,40.60
2018-11-23T13:01:11.385Z,40.00
2018-11-23T13:03:39.693Z,41.87
2018-11-23T13:06:08.026Z,37.47
2018-11-23T13:08:36.322Z,41.17
2018-11-23T13:11:04.716Z,44.13
2018-11-23T13:13:33.046Z,42.47
2018-11-23T13:16:01.383Z,41.73
2018-11-23T13:18:29.714Z,42.40
2018-11-23T13:20:58.041Z,39.67
2018-11-23T13:23:26.362Z,38.73
2018-11-23T13:25:54.734Z,43.07
2018-11-23T13:28:23.060Z,56.30
2018-11-23T13:30:51.896Z,68.60
2018-11-23T13:33:20.182Z,51.73
2018-11-23T13:35:48.495Z,39.43
2018-11-23T13:38:16.816Z,41.67
2018-11-23T13:40:45.118Z,39.90
2018-11-23T13:43:13.442Z,43.57
2018-11-23T13:45:41.753Z,40.73
2018-11-23T13:48:10.066Z,39.77
2018-11-23T13:50:38.828Z,40.23
2018-11-23T13:53:07.195Z,41.43
2018-11-23T13:55:35.514Z,40.13
2018-11-23T13:58:03.846Z,41.13
2018-11-23T14:00:32.160Z,42.97
2018-11-23T14:03:00.626Z,40.60
2018-11-23T14:05:30.552Z,42.53
2018-11-23T14:07:59.948Z,43.27
2018-11-23T14:10:29.086Z,42.50
2018-11-23T14:12:57.488Z,43.60
2018-11-23T14:15:27.183Z,44.03
2018-11-23T14:17:56.398Z,41.80
2018-11-23T14:20:25.478Z,39.97
2018-11-23T14:22:54.010Z,42.03
2018-11-23T14:25:24.711Z,40.97
2018-11-23T14:27:53.419Z,41.50
2018-11-23T14:30:23.214Z,43.37
2018-11-23T14:32:51.672Z,43.13
2018-11-23T14:35:24.486Z,43.63
2018-11-23T14:37:53.566Z,45.87
2018-11-23T14:40:21.986Z,49.43
2018-11-23T14:42:51.360Z,42.43
2018-11-23T14:45:23.136Z,43.63
2018-11-23T14:47:53.148Z,47.03
2018-11-23T14:50:22.882Z,48.97
2018-11-23T14:52:52.122Z,42.17
2018-11-23T14:55:21.408Z,46.77
2018-11-23T14:57:49.744Z,44.30
2018-11-23T15:00:21.713Z,50.07
2018-11-23T15:02:51.364Z,52.17
2018-11-23T15:05:19.770Z,47.87
2018-11-23T15:07:48.385Z,46.90
2018-11-23T15:10:19.172Z,47.77
2018-11-23T15:12:48.838Z,47.60
2018-11-23T15:15:19.432Z,51.63
2018-11-23T15:17:48.904Z,45.57
2018-11-23T15:20:26.892Z,46.10
2018-11-23T15:22:57.872Z,51.83
2018-11-23T15:25:26.198Z,47.97
2018-11-23T15:27:54.694Z,49.00
2018-11-23T15:30:26.112Z,49.33
2018-11-23T15:32:55.166Z,50.03
2018-11-23T15:35:23.575Z,49.80
2018-11-23T15:37:52.204Z,50.87
2018-11-23T15:40:22.840Z,49.60
2018-11-23T15:42:52.613Z,50.10
2018-11-23T15:45:29.226Z,52.83
2018-11-23T15:48:02.598Z,50.80
2018-11-23T15:50:33.479Z,49.53
2018-11-23T15:53:02.042Z,50.43
2018-11-23T15:55:32.332Z,49.83
2018-11-23T15:58:02.572Z,56.33
2018-11-23T16:00:38.591Z,51.80
2018-11-23T16:03:09.060Z,51.28
2018-11-23T16:05:37.965Z,52.60
2018-11-23T16:08:08.721Z,55.50
2018-11-23T16:10:38.229Z,51.60
2018-11-23T16:13:11.300Z,48.93
2018-11-23T16:15:42.555Z,53.40
2018-11-23T16:18:18.886Z,54.60
2018-11-23T16:20:47.778Z,51.87
2018-11-23T16:23:17.671Z,53.13
2018-11-23T16:25:46.672Z,51.93
2018-11-23T16:28:19.271Z,51.87
2018-11-23T16:30:49.274Z,52.40
2018-11-23T16:33:19.510Z,49.73
2018-11-23T16:35:48.000Z,51.27
2018-11-23T16:38:18.157Z,50.03
2018-11-23T16:40:48.317Z,47.17
2018-11-23T16:43:16.916Z,48.53
2018-11-23T16:45:45.825Z,55.77
2018-11-23T16:48:14.918Z,48.53
2018-11-23T16:50:43.917Z,50.23
2018-11-23T16:53:12.597Z,48.27
2018-11-23T16:55:41.454Z,48.70
2018-11-23T16:58:11.379Z,48.87
2018-11-23T17:00:42.214Z,52.97
2018-11-23T17:03:12.673Z,48.60
2018-11-23T17:05:43.572Z,51.17
2018-11-23T17:08:12.144Z,45.55
2018-11-23T17:10:41.024Z,47.73
2018-11-23T17:13:09.604Z,49.90
2018-11-23T17:15:38.190Z,50.23
2018-11-23T17:18:06.998Z,48.73
2018-11-23T17:20:36.371Z,50.08
2018-11-23T17:23:11.126Z,50.73
2018-11-23T17:25:40.555Z,46.23
2018-11-23T17:28:10.467Z,48.83
2018-11-23T17:30:39.240Z,46.13
2018-11-23T17:33:08.156Z,49.63
2018-11-23T17:35:36.882Z,49.20
2018-11-23T17:38:06.098Z,51.10
2018-11-23T17:40:36.300Z,47.77
2018-11-23T17:43:04.968Z,49.53
2018-11-23T17:45:34.018Z,47.63
2018-11-23T17:48:02.823Z,50.65
2018-11-23T17:50:32.776Z,47.30
2018-11-23T17:53:01.542Z,52.87
2018-11-23T17:55:30.341Z,48.30
2018-11-23T17:57:59.387Z,50.40
2018-11-23T18:00:29.695Z,46.02
2018-11-23T18:03:00.055Z,45.10
2018-11-23T18:05:31.957Z,48.58
2018-11-23T18:08:02.401Z,51.83
2018-11-23T18:10:32.900Z,53.87
2018-11-23T18:13:01.918Z,47.65
2018-11-23T18:15:31.714Z,48.60
2018-11-23T18:18:01.219Z,47.33
2018-11-23T18:20:31.432Z,45.52
2018-11-23T18:23:00.553Z,49.95
2018-11-23T18:25:33.800Z,52.53
2018-11-23T18:28:02.176Z,49.67
2018-11-23T18:30:31.795Z,45.98
2018-11-23T18:33:01.161Z,59.83
2018-11-23T18:35:29.558Z,62.67
2018-11-23T18:37:58.003Z,114.05
2018-11-23T18:40:26.443Z,44.77
2018-11-23T18:42:55.053Z,45.25
2018-11-23T18:45:23.480Z,45.40
2018-11-23T18:47:51.807Z,43.47
2018-11-23T18:50:20.209Z,43.53
2018-11-23T18:52:48.603Z,43.53
2018-11-23T18:55:18.348Z,44.83
2018-11-23T18:57:45.630Z,45.20
2018-11-23T19:00:15.624Z,44.95
2018-11-23T19:02:45.253Z,42.70
2018-11-23T19:05:30.429Z,43.83
2018-11-23T19:07:58.801Z,44.18
2018-11-23T19:10:28.225Z,43.60
2018-11-23T19:12:57.463Z,44.10
2018-11-23T19:15:27.581Z,42.80
2018-11-23T19:17:56.021Z,44.42
2018-11-23T19:20:24.514Z,41.50
2018-11-23T19:22:54.195Z,45.20
2018-11-23T19:25:22.639Z,43.78
2018-11-23T19:27:51.672Z,39.90
2018-11-23T19:30:28.069Z,40.93
2018-11-23T19:32:49.816Z,43.42
2018-11-23T19:35:19.935Z,43.77
2018-11-23T19:37:48.529Z,42.23
2018-11-23T19:40:16.975Z,39.48
2018-11-23T19:42:45.713Z,38.30
2018-11-23T19:45:16.065Z,43.23
2018-11-23T19:47:44.890Z,39.35
2018-11-23T19:50:14.353Z,42.65
2018-11-23T19:52:43.964Z,37.63
2018-11-23T19:55:13.377Z,39.27
2018-11-23T19:57:41.925Z,41.58
2018-11-23T20:00:28.779Z,37.42
2018-11-23T20:02:57.258Z,52.70
2018-11-23T20:05:26.061Z,97.57
2018-11-23T20:07:56.197Z,110.97
2018-11-23T20:10:25.271Z,39.33
2018-11-23T20:12:55.154Z,37.17
2018-11-23T20:15:24.658Z,36.37
2018-11-23T20:17:53.111Z,36.17
2018-11-23T20:20:21.819Z,38.15
2018-11-23T20:22:51.037Z,33.55
2018-11-23T20:25:20.809Z,36.15
2018-11-23T20:27:50.776Z,33.30
2018-11-23T20:30:19.832Z,35.80
2018-11-23T20:32:48.347Z,33.05
2018-11-23T20:35:18.241Z,35.08
2018-11-23T20:37:46.913Z,32.65
2018-11-23T20:40:17.479Z,37.08
2018-11-23T20:42:45.948Z,36.93
2018-11-23T20:45:14.512Z,37.58
2018-11-23T20:47:43.953Z,37.20
2018-11-23T20:50:14.219Z,41.60
2018-11-23T20:52:43.048Z,36.77
2018-11-23T20:55:12.760Z,34.63
2018-11-23T20:57:41.221Z,36.20
2018-11-23T21:00:13.005Z,33.67
2018-11-23T21:02:41.475Z,37.48
2018-11-23T21:05:11.198Z,37.33
2018-11-23T21:07:39.680Z,37.10
2018-11-23T21:10:19.661Z,34.43
2018-11-23T21:12:40.267Z,35.35
2018-11-23T21:15:17.417Z,34.33
2018-11-23T21:17:45.883Z,33.70
2018-11-23T21:20:14.351Z,35.88
2018-11-23T21:22:42.843Z,33.90
2018-11-23T21:25:12.101Z,36.75
2018-11-23T21:27:40.559Z,37.42
2018-11-23T21:30:14.548Z,35.40
2018-11-23T21:32:42.990Z,35.13
2018-11-23T21:35:12.043Z,33.33
2018-11-23T21:37:40.470Z,37.00
2018-11-23T21:40:12.060Z,32.17
2018-11-23T21:42:40.481Z,32.15
2018-11-23T21:45:15.016Z,37.13
2018-11-23T21:47:43.415Z,38.53
2018-11-23T21:50:14.732Z,31.77
2018-11-23T21:52:43.105Z,32.85
2018-11-23T21:55:13.791Z,35.90
2018-11-23T21:57:42.165Z,35.75
2018-11-23T22:00:13.429Z,35.17
2018-11-23T22:02:41.912Z,32.78
2018-11-23T22:05:10.442Z,35.80
2018-11-23T22:07:38.805Z,36.42
2018-11-23T22:10:13.309Z,34.45
2018-11-23T22:12:41.746Z,36.40
2018-11-23T22:15:12.481Z,35.70
2018-11-23T22:17:40.815Z,39.13
2018-11-23T22:20:11.684Z,37.58
2018-11-23T22:22:40.152Z,36.90
2018-11-23T22:25:09.751Z,37.50
2018-11-23T22:27:38.364Z,39.92
2018-11-23T22:30:10.703Z,42.15
2018-11-23T22:32:39.027Z,39.53
2018-11-23T22:35:08.828Z,36.98
2018-11-23T22:37:37.192Z,39.73
2018-11-23T22:40:08.296Z,39.73
2018-11-23T22:42:36.626Z,39.10
2018-11-23T22:45:06.159Z,43.25
2018-11-23T22:47:34.524Z,42.55
2018-11-23T22:50:02.925Z,40.25
2018-11-23T22:52:31.272Z,45.03
2018-11-23T22:54:59.603Z,39.53
2018-11-23T22:57:27.934Z,43.00
2018-11-23T22:59:56.253Z,38.60
2018-11-23T23:02:24.610Z,42.43
2018-11-23T23:04:52.938Z,43.00
2018-11-23T23:07:21.258Z,39.92
2018-11-23T23:09:49.599Z,45.30
2018-11-23T23:12:17.947Z,43.63
2018-11-23T23:14:46.288Z,42.95
2018-11-23T23:17:14.623Z,44.83
2018-11-23T23:19:42.975Z,42.30
2018-11-23T23:22:11.313Z,41.98
2018-11-23T23:24:39.651Z,45.50
2018-11-23T23:27:07.971Z,43.20
2018-11-23T23:29:36.268Z,44.60
2018-11-23T23:32:04.756Z,44.65
2018-11-23T23:34:33.075Z,48.40
2018-11-23T23:37:01.430Z,44.70
2018-11-23T23:39:29.720Z,45.38
2018-11-23T23:41:58.049Z,44.63
2018-11-23T23:44:26.369Z,46.30
2018-11-23T23:46:54.746Z,48.15
2018-11-23T23:49:23.095Z,49.25
2018-11-23T23:51:51.451Z,48.08
2018-11-23T23:54:19.761Z,46.53
2018-11-23T23:56:48.095Z,48.80
2018-11-23T23:59:16.424Z,48.83
